Time;durP1;ratioP1;P1;durP2;ratioP2;P2;SDS_P1;SDS_P2;PMS_P1;PMS_P2;Temp;Humidity;BMP_temperature;BMP_pressure;BME280_temperature;BME280_humidity;BME280_pressure;Samples;Min_cycle;Max_cycle;Signal;HPM_P1;HPM_P2
2022/05/28 00:01:33;;;;;;;3.90;3.60;;;;;;;10.18;100.00;97206.81;4955674;28;20210;-48
2022/05/28 00:04:04;;;;;;;3.73;3.53;;;;;;;10.22;100.00;97208.91;4965197;28;20292;-46
2022/05/28 00:06:35;;;;;;;4.00;3.70;;;;;;;10.22;100.00;97210.75;4968740;28;20230;-50
2022/05/28 00:09:04;;;;;;;3.70;3.50;;;;;;;10.38;100.00;97196.50;4964639;28;20205;-51
2022/05/28 00:11:39;;;;;;;3.97;3.30;;;;;;;10.41;100.00;97201.47;4933226;28;20217;-49
2022/05/28 00:14:07;;;;;;;3.90;3.50;;;;;;;10.35;100.00;97195.03;4955516;28;20417;-46
2022/05/28 00:16:36;;;;;;;4.13;3.17;;;;;;;10.37;100.00;97190.38;4954994;28;20521;-48
2022/05/28 00:19:05;;;;;;;3.70;3.40;;;;;;;10.42;100.00;97198.66;4964020;28;20303;-46
2022/05/28 00:21:34;;;;;;;3.23;3.03;;;;;;;10.35;100.00;97187.09;4962381;28;20494;-49
2022/05/28 00:24:02;;;;;;;3.00;2.80;;;;;;;10.24;100.00;97196.34;4967257;28;20601;-50
2022/05/28 00:26:30;;;;;;;3.30;3.10;;;;;;;10.22;100.00;97198.31;4931404;28;21621;-45
2022/05/28 00:29:00;;;;;;;3.13;2.93;;;;;;;10.10;100.00;97195.31;4963229;28;20359;-45
2022/05/28 00:31:28;;;;;;;4.23;3.97;;;;;;;10.12;100.00;97195.13;4940097;28;20582;-47
2022/05/28 00:33:57;;;;;;;3.33;3.07;;;;;;;10.03;100.00;97198.84;4969815;28;20206;-48
2022/05/28 00:36:25;;;;;;;4.43;3.27;;;;;;;9.96;100.00;97193.44;4962196;28;20300;-46
2022/05/28 00:38:53;;;;;;;3.57;3.23;;;;;;;9.93;100.00;97197.28;4972780;28;20301;-48
2022/05/28 00:41:22;;;;;;;3.20;3.00;;;;;;;9.89;100.00;97189.88;4968911;28;20231;-46
2022/05/28 00:43:50;;;;;;;2.80;2.60;;;;;;;9.91;100.00;97198.47;4927151;28;20631;-46
2022/05/28 00:46:22;;;;;;;3.43;3.23;;;;;;;9.93;100.00;97193.81;4942310;28;20225;-46
2022/05/28 00:48:55;;;;;;;3.27;2.97;;;;;;;9.65;100.00;97197.00;4969722;28;20222;-48
2022/05/28 00:51:26;;;;;;;3.67;3.37;;;;;;;9.58;100.00;97196.09;4964157;28;20213;-49
2022/05/28 00:53:56;;;;;;;5.10;3.40;;;;;;;9.35;100.00;97199.56;4968234;28;20217;-52
2022/05/28 00:56:24;;;;;;;3.57;3.17;;;;;;;9.26;100.00;97202.25;4963945;28;20771;-49
2022/05/28 00:58:53;;;;;;;3.63;3.43;;;;;;;9.21;100.00;97201.13;4930130;28;20221;-46
2022/05/28 01:01:25;;;;;;;3.53;3.33;;;;;;;9.05;100.00;97196.78;4941920;28;20495;-46
2022/05/28 01:04:04;;;;;;;4.30;3.90;;;;;;;9.17;100.00;97198.00;4968750;28;20219;-49
2022/05/28 01:06:36;;;;;;;4.43;3.87;;;;;;;9.18;100.00;97190.91;4966366;28;20421;-46
2022/05/28 01:09:07;;;;;;;5.77;2.80;;;;;;;9.05;100.00;97189.66;4963449;28;20209;-46
2022/05/28 01:11:39;;;;;;;5.03;3.63;;;;;;;9.18;100.00;97196.19;4967640;28;20245;-46
2022/05/28 01:14:11;;;;;;;4.07;3.73;;;;;;;9.17;100.00;97199.84;4955013;28;20229;-48
2022/05/28 01:16:43;;;;;;;3.83;3.30;;;;;;;9.18;100.00;97199.66;4954515;28;21006;-45
2022/05/28 01:19:22;;;;;;;3.60;3.30;;;;;;;9.25;100.00;97190.03;4961195;28;20714;-48
2022/05/28 01:22:04;;;;;;;3.27;3.07;;;;;;;9.31;100.00;97187.69;4972741;28;20202;-47
2022/05/28 01:24:42;;;;;;;4.03;3.10;;;;;;;9.36;100.00;97190.63;4967477;28;20954;-49
2022/05/28 01:27:14;;;;;;;4.30;3.90;;;;;;;9.42;100.00;97182.00;4968744;28;20575;-46
2022/05/28 01:29:44;;;;;;;4.10;3.80;;;;;;;9.29;100.00;97176.47;4970379;28;20283;-47
2022/05/28 01:32:13;;;;;;;3.83;3.43;;;;;;;9.28;100.00;97183.56;4913390;28;20241;-50
2022/05/28 01:34:43;;;;;;;3.40;3.10;;;;;;;9.32;100.00;97182.22;4970043;28;20207;-50
2022/05/28 01:37:12;;;;;;;3.67;3.13;;;;;;;9.24;100.00;97172.50;4970841;28;20237;-47
2022/05/28 01:43:23;;;;;;;3.47;3.17;;;;;;;9.21;100.00;97174.69;4964620;28;20490;-49
2022/05/28 01:45:52;;;;;;;4.37;3.73;;;;;;;9.20;100.00;97171.22;4968706;28;20463;-51
2022/05/28 01:48:22;;;;;;;4.00;3.30;;;;;;;9.06;100.00;97186.00;4902545;28;20773;-45
2022/05/28 01:50:55;;;;;;;3.77;3.47;;;;;;;8.97;100.00;97181.78;4965920;28;20205;-47
2022/05/28 01:56:11;;;;;;;3.97;3.57;;;;;;;8.85;100.00;97176.06;4969788;28;20262;-51
2022/05/28 01:58:41;;;;;;;5.50;3.00;;;;;;;8.71;100.00;97182.88;4973025;28;20304;-49
2022/05/28 02:01:10;;;;;;;3.70;3.43;;;;;;;8.62;100.00;97184.75;4968845;28;20805;-51
2022/05/28 02:03:43;;;;;;;3.93;3.63;;;;;;;8.62;100.00;97190.03;4932260;28;20306;-46
2022/05/28 02:06:11;;;;;;;3.33;3.03;;;;;;;8.56;100.00;97185.44;4954505;28;20434;-47
2022/05/28 02:08:42;;;;;;;4.93;4.10;;;;;;;8.54;100.00;97180.31;4971335;28;20216;-49
2022/05/28 02:11:13;;;;;;;7.07;3.97;;;;;;;8.34;100.00;97182.50;4967311;28;20299;-50
2022/05/28 02:13:56;;;;;;;4.27;3.40;;;;;;;8.26;100.00;97185.19;4968780;28;20206;-47
2022/05/28 02:16:31;;;;;;;6.07;3.80;;;;;;;8.20;100.00;97183.22;4970932;28;20834;-50
2022/05/28 02:19:03;;;;;;;4.70;3.90;;;;;;;8.10;100.00;97181.56;4921385;28;20209;-47
2022/05/28 02:21:34;;;;;;;3.60;3.33;;;;;;;7.95;100.00;97184.09;4949605;28;20218;-52
2022/05/28 02:24:05;;;;;;;6.70;3.47;;;;;;;7.99;100.00;97181.94;4961866;28;20440;-50
2022/05/28 02:26:37;;;;;;;4.73;4.10;;;;;;;8.09;100.00;97179.91;4968406;28;20265;-51
2022/05/28 02:29:07;;;;;;;3.57;3.27;;;;;;;7.97;100.00;97181.28;4966214;28;20462;-49
2022/05/28 02:31:36;;;;;;;3.33;3.03;;;;;;;7.94;100.00;97186.88;4969761;28;20209;-50
2022/05/28 02:34:05;;;;;;;3.83;3.10;;;;;;;7.94;100.00;97185.06;4923742;28;20461;-46
2022/05/28 02:36:33;;;;;;;4.53;4.23;;;;;;;7.91;100.00;97188.03;4947743;28;20757;-47
2022/05/28 02:39:01;;;;;;;5.00;3.47;;;;;;;7.93;100.00;97190.50;4958620;28;20646;-46
2022/05/28 02:41:29;;;;;;;3.07;2.73;;;;;;;7.91;100.00;97187.22;4968056;28;20233;-50
2022/05/28 02:43:57;;;;;;;3.23;2.83;;;;;;;7.79;100.00;97186.72;4961760;28;20201;-49
2022/05/28 02:46:27;;;;;;;3.97;2.97;;;;;;;7.74;100.00;97183.78;4966466;28;20320;-48
2022/05/28 02:48:55;;;;;;;3.43;3.20;;;;;;;7.69;100.00;97184.25;4935696;28;20212;-53
2022/05/28 02:51:24;;;;;;;5.67;2.73;;;;;;;7.62;100.00;97188.53;4963105;28;20214;-50
2022/05/28 02:53:54;;;;;;;5.20;3.23;;;;;;;7.54;100.00;97184.09;4949620;28;20345;-48
2022/05/28 02:56:22;;;;;;;4.50;3.00;;;;;;;7.54;100.00;97189.38;4964769;28;20312;-48
2022/05/28 02:58:51;;;;;;;3.20;3.00;;;;;;;7.51;100.00;97197.59;4968880;28;20959;-49
2022/05/28 03:01:23;;;;;;;5.00;3.53;;;;;;;7.44;100.00;97179.00;4966046;28;20522;-48
2022/05/28 03:03:53;;;;;;;5.30;3.30;;;;;;;7.43;100.00;97187.06;4941344;28;20210;-48
2022/05/28 03:06:22;;;;;;;3.13;2.83;;;;;;;7.39;100.00;97194.50;4957007;28;20632;-52
2022/05/28 03:08:50;;;;;;;3.30;3.10;;;;;;;7.42;100.00;97193.31;4951131;28;20565;-49
2022/05/28 03:11:18;;;;;;;3.93;2.83;;;;;;;7.37;100.00;97191.16;4964733;28;20339;-55
2022/05/28 03:13:46;;;;;;;3.73;3.13;;;;;;;7.33;100.00;97198.59;4961198;28;20201;-51
2022/05/28 03:16:15;;;;;;;3.13;2.80;;;;;;;7.28;100.00;97200.91;4950335;28;21424;-52
2022/05/28 03:18:44;;;;;;;3.40;3.10;;;;;;;7.18;100.00;97201.03;4966105;28;20202;-48
2022/05/28 03:21:13;;;;;;;4.70;3.10;;;;;;;7.04;100.00;97204.31;4919972;28;20391;-48
2022/05/28 03:23:41;;;;;;;3.17;2.80;;;;;;;7.09;100.00;97205.44;4944667;28;20436;-49
2022/05/28 03:26:13;;;;;;;3.33;3.13;;;;;;;7.05;100.00;97205.97;4968559;28;20692;-52
2022/05/28 03:28:42;;;;;;;4.80;3.17;;;;;;;7.03;100.00;97197.38;4965723;28;20237;-50
2022/05/28 03:31:10;;;;;;;3.13;2.83;;;;;;;7.02;100.00;97199.19;4962746;28;20738;-51
2022/05/28 03:33:39;;;;;;;4.63;3.13;;;;;;;6.99;100.00;97202.16;4948669;28;20271;-47
2022/05/28 03:36:07;;;;;;;3.50;3.30;;;;;;;7.02;100.00;97196.56;4924396;28;20312;-54
2022/05/28 03:38:38;;;;;;;3.20;3.00;;;;;;;7.06;100.00;97204.97;4947286;28;21105;-52
2022/05/28 03:41:06;;;;;;;6.43;3.10;;;;;;;7.13;100.00;97191.97;4939175;28;20217;-50
2022/05/28 03:43:34;;;;;;;3.27;2.97;;;;;;;7.00;100.00;97200.31;4965291;28;20271;-48
2022/05/28 03:46:03;;;;;;;6.77;3.73;;;;;;;7.04;100.00;97204.31;4965701;28;20233;-50
2022/05/28 03:48:33;;;;;;;5.70;2.90;;;;;;;6.97;100.00;97204.13;4963712;28;20465;-49
2022/05/28 03:51:01;;;;;;;3.63;2.87;;;;;;;6.99;100.00;97204.78;4928357;28;20263;-51
2022/05/28 03:53:29;;;;;;;4.97;3.33;;;;;;;7.03;100.00;97208.75;4922840;28;20268;-50
2022/05/28 03:55:59;;;;;;;3.43;3.13;;;;;;;6.88;100.00;97208.53;4967076;28;20412;-51
2022/05/28 03:58:27;;;;;;;4.87;3.10;;;;;;;6.96;100.00;97215.63;4968028;28;20209;-48
2022/05/28 04:00:55;;;;;;;3.47;3.17;;;;;;;7.07;100.00;97217.97;4969209;28;20205;-52
2022/05/28 04:03:23;;;;;;;3.50;3.20;;;;;;;7.06;100.00;97212.88;4962344;28;20209;-48
2022/05/28 04:05:51;;;;;;;3.37;3.07;;;;;;;7.09;100.00;97221.25;4923018;28;20313;-50
2022/05/28 04:08:19;;;;;;;9.33;2.90;;;;;;;7.24;100.00;97221.47;4967855;28;20612;-49
2022/05/28 04:10:48;;;;;;;5.27;3.63;;;;;;;7.27;100.00;97215.06;4948835;28;20229;-48
2022/05/28 04:13:17;;;;;;;4.97;2.87;;;;;;;7.31;100.00;97223.44;4938063;28;20292;-50
2022/05/28 04:15:47;;;;;;;4.07;3.17;;;;;;;7.37;100.00;97223.63;4967827;28;20830;-52
2022/05/28 04:18:15;;;;;;;8.83;3.37;;;;;;;7.41;100.00;97226.78;4966917;28;20317;-50
2022/05/28 04:20:43;;;;;;;3.07;2.57;;;;;;;7.43;100.00;97232.72;4950644;28;20862;-48
2022/05/28 04:23:11;;;;;;;2.87;2.67;;;;;;;7.42;100.00;97231.06;4923969;28;20224;-48
2022/05/28 04:25:39;;;;;;;3.17;2.80;;;;;;;7.49;100.00;97234.69;4938271;28;20213;-49
2022/05/28 04:28:08;;;;;;;4.97;2.60;;;;;;;7.61;100.00;97235.22;4939449;28;20649;-47
2022/05/28 04:30:37;;;;;;;4.97;3.13;;;;;;;7.70;100.00;97236.00;4967992;28;20646;-52
2022/05/28 04:33:06;;;;;;;3.17;2.90;;;;;;;7.70;100.00;97240.47;4945632;28;20264;-50
2022/05/28 04:35:34;;;;;;;3.13;2.63;;;;;;;7.78;100.00;97248.38;4961272;28;20527;-49
2022/05/28 04:38:02;;;;;;;2.87;2.63;;;;;;;7.89;100.00;97242.78;4924029;28;20309;-47
2022/05/28 04:40:30;;;;;;;4.80;2.80;;;;;;;7.99;100.00;97247.06;4963998;28;20387;-50
2022/05/28 04:42:58;;;;;;;3.00;2.60;;;;;;;8.00;100.00;97252.16;4944943;28;20769;-49
2022/05/28 04:45:27;;;;;;;5.10;3.33;;;;;;;8.19;100.00;97255.47;4963757;28;21014;-47
2022/05/28 04:47:56;;;;;;;4.60;2.90;;;;;;;8.34;100.00;97256.44;4947157;28;20733;-49
2022/05/28 04:50:25;;;;;;;4.00;3.53;;;;;;;8.39;100.00;97261.22;4967698;28;20912;-51
2022/05/28 04:52:53;;;;;;;2.90;2.70;;;;;;;8.42;100.00;97260.88;4931569;28;20215;-49
2022/05/28 04:55:21;;;;;;;5.43;3.67;;;;;;;8.46;100.00;97263.97;4970434;28;20237;-46
2022/05/28 04:57:49;;;;;;;2.63;2.40;;;;;;;8.50;100.00;97265.31;4946670;28;20745;-48
2022/05/28 05:00:19;;;;;;;3.03;2.77;;;;;;;8.61;100.00;97272.06;4967139;28;20315;-50
2022/05/28 05:02:47;;;;;;;5.93;2.27;;;;;;;8.66;100.00;97270.59;4970259;28;20299;-50
2022/05/28 05:05:17;;;;;;;3.50;2.47;;;;;;;8.63;100.00;97273.56;4948230;28;20328;-49
2022/05/28 05:07:45;;;;;;;4.03;3.53;;;;;;;8.67;100.00;97274.03;4920446;28;20299;-52
2022/05/28 05:10:13;;;;;;;6.17;2.90;;;;;;;8.74;100.00;97277.66;4966070;28;20287;-52
2022/05/28 05:12:41;;;;;;;2.57;2.37;;;;;;;9.05;100.00;97273.41;4949684;28;20229;-48
2022/05/28 05:15:12;;;;;;;3.17;2.43;;;;;;;8.94;100.00;97270.16;4968385;28;20783;-50
2022/05/28 05:17:40;;;;;;;4.93;3.10;;;;;;;9.18;100.00;97275.50;4969363;28;20781;-55
2022/05/28 05:20:10;;;;;;;5.47;2.50;;;;;;;9.19;100.00;97277.16;4951221;28;20296;-52
2022/05/28 05:22:40;;;;;;;3.00;2.67;;;;;;;9.34;100.00;97271.97;4969104;28;20248;-51
2022/05/28 05:25:09;;;;;;;4.30;1.90;;;;;;;9.32;100.00;97274.75;4929050;28;20954;-48
2022/05/28 05:27:38;;;;;;;3.60;2.00;;;;;;;9.41;100.00;97279.00;4969830;28;20260;-50
2022/05/28 05:30:07;;;;;;;4.93;2.63;;;;;;;9.42;100.00;97274.56;4949061;28;20248;-51
2022/05/28 05:32:35;;;;;;;3.67;2.13;;;;;;;9.55;100.00;97284.56;4952644;28;20201;-49
2022/05/28 05:35:04;;;;;;;4.27;2.20;;;;;;;9.78;100.00;97286.38;4967824;28;20238;-48
2022/05/28 05:37:32;;;;;;;3.90;2.13;;;;;;;10.06;100.00;97289.34;4967939;28;20506;-55
2022/05/28 05:40:02;;;;;;;3.17;2.50;;;;;;;10.05;100.00;97297.44;4927266;28;20323;-48
2022/05/28 05:42:30;;;;;;;4.87;2.67;;;;;;;10.08;100.00;97287.31;4966259;28;20903;-51
2022/05/28 05:44:58;;;;;;;4.60;2.50;;;;;;;10.25;100.00;97288.00;4974413;28;20329;-54
2022/05/28 05:47:26;;;;;;;2.50;2.30;;;;;;;10.21;100.00;97286.69;4967234;28;20222;-49
2022/05/28 05:49:54;;;;;;;3.10;2.03;;;;;;;10.22;100.00;97298.94;4968268;28;20229;-51
2022/05/28 05:52:23;;;;;;;3.53;2.13;;;;;;;10.24;100.00;97285.53;4971022;28;20226;-53
2022/05/28 05:54:51;;;;;;;3.93;2.23;;;;;;;10.38;100.00;97289.22;4930941;28;20218;-49
2022/05/28 05:57:21;;;;;;;5.80;2.30;;;;;;;10.36;100.00;97291.22;4964666;28;20225;-48
2022/05/28 05:59:49;;;;;;;5.37;2.57;;;;;;;10.52;100.00;97296.38;4969994;28;20265;-49
2022/05/28 06:02:17;;;;;;;7.83;2.47;;;;;;;10.29;100.00;97296.41;4969588;28;20268;-50
2022/05/28 06:04:45;;;;;;;6.17;2.70;;;;;;;10.27;100.00;97286.00;4967069;28;20220;-53
2022/05/28 06:07:13;;;;;;;6.50;3.73;;;;;;;10.28;100.00;97278.88;4965333;28;20235;-47
2022/05/28 06:09:42;;;;;;;2.37;2.03;;;;;;;10.38;100.00;97284.72;4970845;28;20327;-49
2022/05/28 06:12:10;;;;;;;5.57;2.73;;;;;;;10.65;100.00;97279.06;4928568;28;20277;-48
2022/05/28 06:14:39;;;;;;;3.20;2.20;;;;;;;10.58;100.00;97278.94;4972591;28;20237;-49
2022/05/28 06:17:08;;;;;;;7.77;2.40;;;;;;;10.76;100.00;97275.09;4971332;28;20327;-48
2022/05/28 06:19:36;;;;;;;4.70;2.07;;;;;;;10.85;100.00;97264.22;4968071;28;20214;-49
2022/05/28 06:22:05;;;;;;;3.37;1.80;;;;;;;11.04;100.00;97266.50;4968600;28;20230;-48
2022/05/28 06:24:33;;;;;;;3.77;2.17;;;;;;;11.04;100.00;97270.00;4966297;28;20489;-52
2022/05/28 06:27:02;;;;;;;2.63;2.07;;;;;;;11.07;100.00;97272.28;4933201;28;20281;-50
2022/05/28 06:29:30;;;;;;;2.50;1.83;;;;;;;11.01;100.00;97273.00;4967549;28;20335;-54
2022/05/28 06:32:00;;;;;;;5.57;2.07;;;;;;;11.24;100.00;97275.53;4970551;28;20210;-50
2022/05/28 06:34:34;;;;;;;2.53;2.00;;;;;;;11.29;100.00;97267.00;4967322;28;20909;-49
2022/05/28 06:37:03;;;;;;;3.20;1.60;;;;;;;11.50;100.00;97263.56;4971079;28;20229;-47
2022/05/28 06:39:31;;;;;;;2.40;1.87;;;;;;;11.82;100.00;97269.41;4969112;28;20305;-49
2022/05/28 06:41:59;;;;;;;2.50;2.03;;;;;;;11.60;100.00;97273.06;4906236;28;20210;-49
2022/05/28 06:44:27;;;;;;;4.27;2.20;;;;;;;11.33;100.00;97267.47;4945096;28;20431;-48
2022/05/28 06:46:55;;;;;;;2.07;1.57;;;;;;;11.34;100.00;97269.09;4966000;28;20279;-51
2022/05/28 06:49:24;;;;;;;2.37;1.60;;;;;;;11.47;100.00;97268.44;4939127;28;20342;-48
2022/05/28 06:51:53;;;;;;;1.40;1.30;;;;;;;11.27;100.00;97263.72;4969573;28;20289;-52
2022/05/28 06:54:21;;;;;;;4.10;1.93;;;;;;;10.92;100.00;97269.63;4968847;28;20454;-50
2022/05/28 06:56:49;;;;;;;4.30;1.40;;;;;;;10.87;100.00;97272.00;4930207;28;20234;-51
2022/05/28 06:59:17;;;;;;;2.53;1.50;;;;;;;11.00;100.00;97274.03;4947904;28;20522;-54
2022/05/28 07:01:45;;;;;;;3.80;1.80;;;;;;;11.18;100.00;97272.78;4955140;28;20301;-48
2022/05/28 07:04:13;;;;;;;4.13;2.97;;;;;;;11.41;100.00;97267.34;4939262;28;20394;-52
2022/05/28 07:06:43;;;;;;;2.10;1.90;;;;;;;11.50;100.00;97274.19;4970094;28;20218;-57
2022/05/28 07:09:11;;;;;;;4.07;1.77;;;;;;;11.56;100.00;97278.75;4967111;28;20221;-50
2022/05/28 07:11:39;;;;;;;5.90;1.90;;;;;;;11.78;100.00;97278.75;4966479;28;20202;-49
2022/05/28 07:14:07;;;;;;;1.70;1.60;;;;;;;11.64;100.00;97271.69;4925829;28;20232;-52
2022/05/28 07:16:35;;;;;;;4.47;1.30;;;;;;;11.92;100.00;97270.91;4970464;28;20561;-50
2022/05/28 07:19:03;;;;;;;2.40;2.20;;;;;;;12.01;100.00;97273.28;4937259;28;20384;-50
2022/05/28 07:21:31;;;;;;;2.93;1.20;;;;;;;12.02;100.00;97261.63;4970412;28;20231;-53
2022/05/28 07:24:00;;;;;;;2.20;1.40;;;;;;;12.27;100.00;97265.72;4964618;28;20409;-49
2022/05/28 07:26:28;;;;;;;3.13;1.30;;;;;;;12.35;100.00;97262.94;4970747;28;20225;-48
2022/05/28 07:28:56;;;;;;;4.10;1.70;;;;;;;12.50;98.75;97260.19;4927734;28;20264;-49
2022/05/28 07:31:24;;;;;;;1.37;1.27;;;;;;;12.42;96.76;97266.47;4968303;28;20701;-51
2022/05/28 07:33:53;;;;;;;1.40;1.30;;;;;;;12.82;92.70;97259.75;4944904;28;20434;-52
2022/05/28 07:36:22;;;;;;;1.17;0.90;;;;;;;13.25;97.39;97256.88;4959459;28;20247;-56
2022/05/28 07:38:52;;;;;;;2.37;1.20;;;;;;;12.87;89.72;97266.09;4967305;28;20212;-52
2022/05/28 07:41:24;;;;;;;2.67;1.10;;;;;;;12.65;87.81;97256.59;4965076;28;20219;-56
2022/05/28 07:43:54;;;;;;;6.33;1.47;;;;;;;12.63;90.32;97264.75;4947876;28;20205;-48
2022/05/28 07:46:23;;;;;;;6.17;2.00;;;;;;;12.87;94.62;97257.31;4961673;28;20232;-49
2022/05/28 07:48:52;;;;;;;5.10;2.00;;;;;;;13.53;87.84;97247.16;4955415;28;20232;-49
2022/05/28 07:51:20;;;;;;;2.27;1.17;;;;;;;13.50;81.36;97253.72;4957017;28;20993;-53
2022/05/28 07:53:48;;;;;;;3.67;1.80;;;;;;;13.24;90.66;97254.38;4965826;28;20572;-53
2022/05/28 07:56:17;;;;;;;1.90;1.23;;;;;;;12.92;88.93;97257.53;4967844;28;20368;-51
2022/05/28 07:58:47;;;;;;;2.70;1.30;;;;;;;13.07;82.59;97259.22;4960488;28;20233;-54
2022/05/28 08:01:19;;;;;;;3.33;1.67;;;;;;;13.30;87.88;97258.94;4950009;28;20209;-49
2022/05/28 08:03:48;;;;;;;1.50;1.30;;;;;;;13.16;85.65;97248.22;4969348;28;20233;-49
2022/05/28 08:06:17;;;;;;;1.60;1.50;;;;;;;13.15;89.02;97257.22;4943261;28;20406;-49
2022/05/28 08:08:46;;;;;;;1.43;0.97;;;;;;;13.40;94.31;97242.56;4967991;28;20205;-49
2022/05/28 08:11:15;;;;;;;2.50;1.07;;;;;;;14.10;82.30;97247.63;4967160;28;20957;-50
2022/05/28 08:13:43;;;;;;;3.60;1.80;;;;;;;14.39;73.28;97244.72;4965034;28;20213;-52
2022/05/28 08:16:13;;;;;;;2.33;1.30;;;;;;;14.18;77.89;97258.06;4939006;28;20229;-54
2022/05/28 08:18:42;;;;;;;1.30;1.30;;;;;;;13.49;84.22;97245.91;4959938;28;20213;-52
2022/05/28 08:24:01;;;;;;;2.27;1.20;;;;;;;13.29;76.25;97251.97;4938591;28;20238;-53
2022/05/28 08:26:30;;;;;;;1.33;0.93;;;;;;;13.82;85.17;97253.16;4970414;28;20253;-56
2022/05/28 08:28:58;;;;;;;2.73;1.60;;;;;;;13.96;87.04;97248.66;4934365;28;20315;-50
2022/05/28 08:31:29;;;;;;;1.50;1.40;;;;;;;14.14;70.42;97253.38;4966572;28;20698;-49
2022/05/28 08:33:58;;;;;;;2.50;1.57;;;;;;;14.00;76.57;97244.56;4958425;28;20209;-47
2022/05/28 08:36:26;;;;;;;1.40;0.93;;;;;;;13.68;79.39;97244.31;4955924;28;20737;-52
2022/05/28 08:38:54;;;;;;;2.63;2.23;;;;;;;14.17;80.88;97252.97;4956894;28;20415;-50
2022/05/28 08:41:25;;;;;;;1.57;1.23;;;;;;;13.94;83.20;97253.38;4968405;28;20743;-51
2022/05/28 08:44:00;;;;;;;1.67;1.03;;;;;;;13.28;80.79;97255.66;4957847;28;20212;-54
2022/05/28 08:46:33;;;;;;;4.40;1.33;;;;;;;13.36;83.97;97246.66;4934096;28;20247;-50
2022/05/28 08:49:02;;;;;;;0.97;0.87;;;;;;;13.75;78.83;97250.47;4975470;28;20399;-49
2022/05/28 08:51:38;;;;;;;1.40;1.20;;;;;;;14.03;75.61;97246.81;4956686;28;20324;-53
2022/05/28 08:54:09;;;;;;;1.60;1.33;;;;;;;14.35;79.07;97246.16;4970359;28;20443;-53
2022/05/28 08:56:38;;;;;;;2.50;1.50;;;;;;;14.27;72.81;97240.03;4969391;28;20239;-47
2022/05/28 08:59:09;;;;;;;4.00;1.42;;;;;;;14.45;71.75;97238.59;4955457;28;20941;-49
2022/05/28 09:01:40;;;;;;;2.10;1.20;;;;;;;14.00;73.39;97236.56;4930537;28;20709;-49
2022/05/28 09:04:14;;;;;;;2.13;1.33;;;;;;;13.87;68.16;97240.88;4974501;28;20647;-54
2022/05/28 09:06:46;;;;;;;1.63;1.53;;;;;;;13.78;77.71;97246.59;4955849;28;20266;-49
2022/05/28 09:09:16;;;;;;;1.83;1.42;;;;;;;13.69;75.47;97236.13;4953981;28;21124;-48
2022/05/28 09:11:51;;;;;;;1.98;1.35;;;;;;;13.78;77.05;97238.59;4964799;28;20542;-48
2022/05/28 09:14:23;;;;;;;2.43;1.40;;;;;;;13.43;71.29;97231.56;4955517;28;20214;-51
2022/05/28 09:16:54;;;;;;;1.20;1.17;;;;;;;13.44;72.20;97230.53;4928075;28;20829;-51
2022/05/28 09:19:25;;;;;;;2.17;1.20;;;;;;;13.47;77.80;97238.13;4974123;28;20265;-55
2022/05/28 09:21:54;;;;;;;2.43;1.10;;;;;;;13.82;73.52;97239.81;4951657;28;20486;-50
2022/05/28 09:24:24;;;;;;;2.57;1.20;;;;;;;13.89;73.97;97225.50;4957968;28;20217;-46
2022/05/28 09:26:59;;;;;;;2.07;1.40;;;;;;;14.32;75.99;97232.22;4966508;28;20442;-52
2022/05/28 09:29:39;;;;;;;4.17;1.10;;;;;;;14.57;70.82;97215.59;4973166;28;20296;-52
2022/05/28 09:32:13;;;;;;;2.40;1.30;;;;;;;14.39;63.04;97221.56;4928166;28;20683;-51
2022/05/28 09:34:50;;;;;;;2.00;1.27;;;;;;;13.93;68.32;97217.09;4963804;28;20208;-50
2022/05/28 09:37:26;;;;;;;5.40;1.50;;;;;;;14.28;69.85;97217.69;4936250;28;20261;-53
2022/05/28 09:39:59;;;;;;;2.27;1.30;;;;;;;14.23;64.24;97222.81;4958858;28;20213;-49
2022/05/28 09:42:44;;;;;;;2.47;2.27;;;;;;;14.32;67.42;97223.44;4946338;28;20773;-52
2022/05/28 09:45:18;;;;;;;1.37;1.00;;;;;;;13.81;67.96;97228.34;4964548;28;20248;-51
2022/05/28 09:47:50;;;;;;;0.80;0.80;;;;;;;13.80;73.41;97210.72;4924655;28;20232;-55
2022/05/28 09:50:25;;;;;;;2.43;1.10;;;;;;;13.92;73.59;97221.59;4959626;28;20315;-51
2022/05/28 09:55:57;;;;;;;0.93;0.80;;;;;;;14.66;68.79;97210.88;4954898;28;20300;-53
2022/05/28 09:58:29;;;;;;;1.23;1.10;;;;;;;14.71;60.37;97211.06;4968653;28;20259;-51
2022/05/28 10:01:06;;;;;;;0.93;0.90;;;;;;;14.55;65.60;97217.66;4972635;28;20252;-55
2022/05/28 10:06:24;;;;;;;2.23;2.10;;;;;;;14.12;71.06;97226.91;4969916;28;20233;-52
2022/05/28 10:08:52;;;;;;;2.07;0.90;;;;;;;13.75;71.18;97218.50;4953895;28;20209;-51
2022/05/28 10:11:22;;;;;;;2.23;1.20;;;;;;;13.54;77.52;97219.50;4955523;28;20225;-49
2022/05/28 10:13:53;;;;;;;1.77;0.90;;;;;;;13.91;71.39;97222.63;4971825;28;20205;-51
2022/05/28 10:16:23;;;;;;;0.80;0.80;;;;;;;14.19;62.88;97203.75;4960007;28;20809;-53
2022/05/28 10:19:21;;;;;;;1.70;0.90;;;;;;;14.72;54.46;97204.72;4932307;28;20718;-52
2022/05/28 10:21:52;;;;;;;2.03;1.13;;;;;;;14.66;55.28;97192.19;4972279;28;20212;-48
2022/05/28 10:24:22;;;;;;;2.20;1.17;;;;;;;15.32;55.50;97189.47;4956619;28;20265;-51
2022/05/28 10:26:53;;;;;;;1.13;1.00;;;;;;;15.98;49.81;97183.91;4963112;28;21329;-48
2022/05/28 10:29:27;;;;;;;1.30;0.77;;;;;;;15.59;52.15;97190.13;4953277;28;20238;-50
2022/05/28 10:31:57;;;;;;;0.93;0.93;;;;;;;15.29;52.11;97189.91;4955416;28;20369;-53
2022/05/28 10:34:36;;;;;;;1.10;1.00;;;;;;;15.20;52.82;97189.31;4923226;28;21594;-47
2022/05/28 10:37:10;;;;;;;1.40;1.30;;;;;;;14.64;55.69;97185.44;4973219;28;20328;-48
2022/05/28 10:39:38;;;;;;;1.13;1.10;;;;;;;14.35;58.68;97198.19;4970265;28;20205;-47
2022/05/28 10:42:10;;;;;;;2.03;1.83;;;;;;;13.99;63.97;97197.63;4940177;28;20218;-53
2022/05/28 10:44:39;;;;;;;1.27;0.90;;;;;;;13.56;68.10;97197.00;4956274;28;20291;-50
2022/05/28 10:47:22;;;;;;;1.30;1.10;;;;;;;13.32;71.34;97199.16;4959843;28;21028;-52
2022/05/28 10:49:59;;;;;;;1.00;1.00;;;;;;;14.06;67.79;97201.09;4927683;28;20772;-49
2022/05/28 10:52:41;;;;;;;3.40;1.17;;;;;;;15.02;66.32;97190.88;4955661;28;20320;-54
2022/05/28 10:55:11;;;;;;;1.50;1.37;;;;;;;15.14;61.83;97199.00;4968213;28;20290;-48
2022/05/28 10:58:22;;;;;;;1.50;1.40;;;;;;;15.03;56.40;97191.66;4960926;28;20236;-47
2022/05/28 11:00:58;;;;;;;2.33;1.13;;;;;;;14.73;58.75;97174.34;4933362;28;20213;-44
2022/05/28 11:04:06;;;;;;;2.63;1.93;;;;;;;14.90;60.73;97180.03;4948715;28;20212;-45
2022/05/28 11:07:06;;;;;;;3.47;1.00;;;;;;;15.51;59.13;97171.69;4927067;28;20246;-46
2022/05/28 11:09:42;;;;;;;1.70;1.43;;;;;;;15.38;54.65;97174.47;4965186;28;20221;-49
2022/05/28 11:12:29;;;;;;;2.17;1.23;;;;;;;15.09;49.86;97174.81;4951706;28;20710;-45
2022/05/28 11:15:08;;;;;;;2.20;0.93;;;;;;;14.80;54.27;97176.16;4956857;28;20214;-47
2022/05/28 11:17:44;;;;;;;3.17;1.33;;;;;;;15.22;53.87;97167.78;4969623;28;20263;-53
2022/05/28 11:20:19;;;;;;;3.50;1.30;;;;;;;15.83;52.23;97162.81;4951818;28;20209;-47
2022/05/28 11:23:04;;;;;;;1.50;1.30;;;;;;;16.40;48.07;97160.06;4932769;28;20227;-47
2022/05/28 11:25:41;;;;;;;3.50;1.30;;;;;;;16.53;52.13;97152.94;4966280;28;20206;-47
2022/05/28 11:28:24;;;;;;;1.97;1.20;;;;;;;16.72;44.54;97156.44;4952581;28;20238;-48
2022/05/28 11:30:55;;;;;;;1.20;1.03;;;;;;;16.54;47.40;97151.91;4955994;28;20433;-48
2022/05/28 11:33:27;;;;;;;1.77;1.33;;;;;;;16.74;48.37;97151.66;4964565;28;20205;-44
2022/05/28 11:35:59;;;;;;;1.67;0.90;;;;;;;16.34;48.50;97143.06;4955080;28;20556;-47
2022/05/28 11:38:34;;;;;;;2.23;1.20;;;;;;;15.89;50.35;97152.13;4942880;28;20614;-47
2022/05/28 11:41:07;;;;;;;1.37;1.27;;;;;;;15.71;52.53;97155.53;4945663;28;20731;-53
2022/05/28 11:43:40;;;;;;;1.20;1.10;;;;;;;15.49;50.21;97149.72;4970921;28;20203;-50
2022/05/28 11:46:19;;;;;;;1.47;1.07;;;;;;;16.05;50.32;97140.06;4942186;28;20405;-45
2022/05/28 11:51:42;;;;;;;1.10;1.10;;;;;;;16.06;52.87;97135.50;4932355;28;20267;-48
2022/05/28 11:54:17;;;;;;;3.27;1.27;;;;;;;15.71;47.84;97127.97;4957900;28;20242;-47
2022/05/28 11:56:47;;;;;;;1.70;1.60;;;;;;;15.60;49.56;97126.84;4949330;28;20243;-48
2022/05/28 11:59:19;;;;;;;2.93;1.13;;;;;;;15.39;50.18;97123.50;4962223;28;20292;-53
2022/05/28 12:01:50;;;;;;;1.67;1.58;;;;;;;15.34;53.15;97128.69;4948550;28;20543;-47
2022/05/28 12:04:18;;;;;;;1.92;1.42;;;;;;;15.68;48.90;97117.72;4964273;28;20452;-47
2022/05/28 12:07:02;;;;;;;2.17;1.30;;;;;;;15.91;50.15;97122.53;4951907;28;20795;-50